Time;durP1;ratioP1;P1;durP2;ratioP2;P2;SDS_P1;SDS_P2;PMS_P1;PMS_P2;Temp;Humidity;BMP_temperature;BMP_pressure;BME280_temperature;BME280_humidity;BME280_pressure;Samples;Min_cycle;Max_cycle;Signal;HPM_P1;HPM_P2
2023/07/09 02:01:09;;;;;;;8.18;3.22;;;;;;;;;;4717932;27;20412;-80
2023/07/09 02:03:36;;;;;;;3.10;2.78;;;;;;;;;;4285742;33;20046;-77
2023/07/09 02:06:09;;;;;;;5.20;3.10;;;;;;;;;;4287092;33;20060;-77
2023/07/09 02:08:36;;;;;;;5.65;3.28;;;;;;;;;;4295706;33;20338;-78
2023/07/09 02:11:01;;;;;;;4.47;3.33;;;;;;;;;;4297612;33;20033;-78
2023/07/09 02:13:28;;;;;;;8.20;2.90;;;;;;;;;;4299632;33;20126;-78
2023/07/09 02:15:54;;;;;;;7.43;3.70;;;;;;;;;;4297630;33;20048;-77
2023/07/09 02:18:20;;;;;;;5.25;3.22;;;;;;;;;;4298624;33;20075;-78
2023/07/09 02:20:46;;;;;;;4.30;3.28;;;;;;;;;;4299931;33;20068;-78
2023/07/09 02:23:12;;;;;;;6.18;4.07;;;;;;;;;;4299241;33;20067;-78
2023/07/09 02:25:39;;;;;;;4.55;3.10;;;;;;;;;;4299385;33;20053;-77
2023/07/09 02:28:05;;;;;;;3.80;3.50;;;;;;;;;;4298766;33;20075;-77
2023/07/09 02:30:31;;;;;;;5.82;3.60;;;;;;;;;;4284451;33;20535;-78
2023/07/09 02:33:04;;;;;;;9.30;3.72;;;;;;;;;;4290572;33;20068;-78
2023/07/09 02:35:29;;;;;;;5.70;3.17;;;;;;;;;;4284616;33;20080;-78
2023/07/09 02:37:56;;;;;;;3.45;3.15;;;;;;;;;;4283673;33;20057;-79
2023/07/09 02:40:22;;;;;;;8.02;3.55;;;;;;;;;;4286894;33;20053;-76
2023/07/09 02:42:48;;;;;;;4.28;3.00;;;;;;;;;;4284002;33;20411;-78
2023/07/09 02:45:15;;;;;;;2.97;2.65;;;;;;;;;;4283770;33;20067;-78
2023/07/09 02:47:42;;;;;;;3.60;3.30;;;;;;;;;;4283821;33;20061;-78
2023/07/09 02:50:08;;;;;;;4.05;3.00;;;;;;;;;;4284716;33;20089;-77
2023/07/09 02:52:34;;;;;;;5.32;2.90;;;;;;;;;;4252566;33;20068;-78
2023/07/09 02:55:00;;;;;;;4.00;3.25;;;;;;;;;;4265820;33;20220;-78
2023/07/09 02:57:26;;;;;;;4.62;3.20;;;;;;;;;;4258200;33;20050;-77
2023/07/09 02:59:52;;;;;;;4.28;3.08;;;;;;;;;;4267173;33;20053;-78
2023/07/09 03:02:19;;;;;;;6.65;3.35;;;;;;;;;;4266058;33;20478;-78
2023/07/09 03:04:45;;;;;;;5.43;3.30;;;;;;;;;;4265840;33;20041;-78
2023/07/09 03:07:11;;;;;;;4.97;2.97;;;;;;;;;;4267842;33;20083;-78
2023/07/09 03:09:37;;;;;;;3.92;3.08;;;;;;;;;;4268005;33;20084;-78
2023/07/09 03:12:04;;;;;;;3.85;2.90;;;;;;;;;;4266951;33;20054;-77
2023/07/09 03:14:30;;;;;;;3.28;2.97;;;;;;;;;;4267549;33;20038;-78
2023/07/09 03:16:56;;;;;;;3.83;2.87;;;;;;;;;;4264799;33;20456;-78
2023/07/09 03:19:22;;;;;;;3.78;3.30;;;;;;;;;;4267347;33;20046;-79
2023/07/09 03:21:48;;;;;;;7.03;3.30;;;;;;;;;;4267190;33;20046;-79
2023/07/09 03:24:18;;;;;;;9.85;2.90;;;;;;;;;;4278710;33;20053;-77
2023/07/09 03:26:47;;;;;;;9.25;3.33;;;;;;;;;;4264910;33;20061;-79
2023/07/09 03:29:13;;;;;;;5.45;3.37;;;;;;;;;;4267711;33;20496;-78
2023/07/09 03:31:40;;;;;;;2.90;2.70;;;;;;;;;;4266277;33;20400;-78
2023/07/09 03:34:06;;;;;;;4.05;2.90;;;;;;;;;;4256693;33;20093;-79
2023/07/09 03:36:32;;;;;;;16.42;3.85;;;;;;;;;;4251114;33;20114;-78
2023/07/09 03:38:58;;;;;;;3.62;3.30;;;;;;;;;;4264495;33;20054;-78
2023/07/09 03:41:25;;;;;;;6.57;3.42;;;;;;;;;;4265612;33;20481;-76
2023/07/09 03:43:52;;;;;;;4.20;2.65;;;;;;;;;;4266993;33;20038;-77
2023/07/09 03:46:19;;;;;;;6.70;4.00;;;;;;;;;;4267108;33;20057;-77
2023/07/09 03:48:45;;;;;;;6.05;3.30;;;;;;;;;;4275423;33;20041;-76
2023/07/09 03:51:11;;;;;;;7.68;2.80;;;;;;;;;;4281577;33;20078;-77
2023/07/09 03:53:37;;;;;;;5.60;3.17;;;;;;;;;;4279922;33;20054;-77
2023/07/09 03:56:03;;;;;;;3.62;3.20;;;;;;;;;;4276306;33;20072;-77
2023/07/09 03:58:29;;;;;;;4.30;3.28;;;;;;;;;;4280482;33;20050;-77
2023/07/09 04:00:56;;;;;;;3.78;3.17;;;;;;;;;;4281079;33;20053;-77
2023/07/09 04:03:22;;;;;;;4.90;3.03;;;;;;;;;;4282707;33;20410;-80
2023/07/09 04:05:48;;;;;;;4.68;3.33;;;;;;;;;;4283456;33;20048;-79
2023/07/09 04:08:14;;;;;;;3.35;3.03;;;;;;;;;;4283611;33;20392;-78
2023/07/09 04:10:41;;;;;;;5.10;2.87;;;;;;;;;;4291725;33;20550;-79
2023/07/09 04:13:07;;;;;;;3.70;3.10;;;;;;;;;;4291732;33;20045;-77
2023/07/09 04:15:33;;;;;;;9.20;3.78;;;;;;;;;;4283070;33;20190;-77
2023/07/09 04:17:59;;;;;;;4.22;3.22;;;;;;;;;;4286594;33;20318;-77
2023/07/09 04:20:26;;;;;;;5.80;3.45;;;;;;;;;;4283334;33;20377;-77
2023/07/09 04:22:52;;;;;;;3.85;2.95;;;;;;;;;;4283043;33;20050;-77
2023/07/09 04:25:18;;;;;;;11.80;2.92;;;;;;;;;;4283191;33;20057;-77
2023/07/09 04:27:44;;;;;;;5.35;2.78;;;;;;;;;;4280263;33;20072;-77
2023/07/09 04:30:11;;;;;;;4.03;3.25;;;;;;;;;;4283134;33;20075;-77
2023/07/09 04:32:38;;;;;;;6.87;2.50;;;;;;;;;;4282309;33;20119;-77
2023/07/09 04:35:07;;;;;;;6.45;3.47;;;;;;;;;;4252844;33;20063;-78
2023/07/09 04:37:33;;;;;;;4.28;2.80;;;;;;;;;;4252291;33;20064;-79
2023/07/09 04:40:06;;;;;;;3.97;2.62;;;;;;;;;;4251291;33;20412;-78
2023/07/09 04:42:32;;;;;;;3.80;2.95;;;;;;;;;;4266066;33;20067;-78
2023/07/09 04:44:58;;;;;;;2.92;2.55;;;;;;;;;;4265809;33;20062;-78
2023/07/09 04:47:25;;;;;;;5.00;2.67;;;;;;;;;;4265260;33;20157;-77
2023/07/09 04:49:51;;;;;;;3.97;2.80;;;;;;;;;;4264962;33;20049;-77
2023/07/09 04:52:17;;;;;;;5.75;3.03;;;;;;;;;;4265400;33;20046;-77
2023/07/09 04:54:44;;;;;;;6.28;2.72;;;;;;;;;;4265949;33;20776;-78
2023/07/09 04:57:16;;;;;;;4.78;2.37;;;;;;;;;;4266043;33;20408;-77
2023/07/09 04:59:43;;;;;;;13.20;3.45;;;;;;;;;;4265556;33;20075;-77
2023/07/09 05:02:09;;;;;;;4.85;2.45;;;;;;;;;;4262030;33;20517;-76
2023/07/09 05:04:35;;;;;;;2.80;2.45;;;;;;;;;;4265970;33;21041;-78
2023/07/09 05:07:02;;;;;;;8.90;2.40;;;;;;;;;;4278777;33;20042;-77
2023/07/09 05:09:28;;;;;;;4.35;2.08;;;;;;;;;;4280132;33;20536;-77
2023/07/09 05:11:54;;;;;;;6.30;2.37;;;;;;;;;;4279755;33;20037;-75
2023/07/09 05:14:20;;;;;;;3.40;2.55;;;;;;;;;;4278690;33;20070;-77
2023/07/09 05:16:46;;;;;;;2.92;2.33;;;;;;;;;;4274005;33;20844;-77
2023/07/09 05:19:12;;;;;;;3.05;2.75;;;;;;;;;;4280154;33;20041;-77
2023/07/09 05:21:39;;;;;;;3.37;2.50;;;;;;;;;;4280162;33;20392;-77
2023/07/09 05:24:05;;;;;;;5.55;2.90;;;;;;;;;;4286029;33;20063;-76
2023/07/09 05:26:31;;;;;;;2.80;2.20;;;;;;;;;;4282372;33;20075;-76
2023/07/09 05:28:58;;;;;;;8.98;2.90;;;;;;;;;;4282023;33;20088;-77
2023/07/09 05:31:24;;;;;;;3.22;2.42;;;;;;;;;;4282640;33;20067;-76
2023/07/09 05:33:50;;;;;;;2.70;2.50;;;;;;;;;;4291950;33;20049;-78
2023/07/09 05:36:23;;;;;;;5.82;2.12;;;;;;;;;;4296657;33;20079;-76
2023/07/09 05:38:50;;;;;;;4.82;2.67;;;;;;;;;;4295138;33;20075;-77
2023/07/09 05:41:16;;;;;;;4.72;2.25;;;;;;;;;;4279429;33;20090;-77
2023/07/09 05:43:44;;;;;;;6.65;2.70;;;;;;;;;;4275938;33;20083;-78
2023/07/09 05:46:10;;;;;;;2.85;2.45;;;;;;;;;;4264434;33;20030;-77
2023/07/09 05:48:37;;;;;;;3.00;2.15;;;;;;;;;;4266297;33;20192;-77
2023/07/09 05:51:03;;;;;;;4.15;2.60;;;;;;;;;;4273256;33;20446;-77
2023/07/09 05:53:29;;;;;;;3.55;2.40;;;;;;;;;;4278849;33;20294;-77
2023/07/09 05:55:55;;;;;;;5.15;3.60;;;;;;;;;;4272352;33;20152;-78
2023/07/09 05:58:22;;;;;;;4.35;2.87;;;;;;;;;;4265494;33;20487;-78
2023/07/09 06:00:56;;;;;;;4.43;3.20;;;;;;;;;;4278294;33;20383;-77
2023/07/09 06:03:24;;;;;;;2.53;2.33;;;;;;;;;;4279928;33;20092;-78
2023/07/09 06:05:50;;;;;;;4.10;2.92;;;;;;;;;;4279854;33;20428;-77
2023/07/09 06:08:18;;;;;;;8.32;2.30;;;;;;;;;;4279544;33;20338;-77
2023/07/09 06:11:00;;;;;;;5.75;2.40;;;;;;;;;;4277541;33;20049;-76
2023/07/09 06:13:27;;;;;;;3.70;2.60;;;;;;;;;;4282175;33;20067;-77
2023/07/09 06:15:54;;;;;;;7.10;2.22;;;;;;;;;;4295360;33;20390;-77
2023/07/09 06:18:21;;;;;;;4.32;2.42;;;;;;;;;;4296218;33;20057;-76
2023/07/09 06:20:50;;;;;;;5.60;3.00;;;;;;;;;;4295978;33;20041;-77
2023/07/09 06:23:18;;;;;;;2.65;2.12;;;;;;;;;;4296686;33;20052;-76
2023/07/09 06:25:47;;;;;;;4.10;2.83;;;;;;;;;;4285121;33;20064;-77
2023/07/09 06:28:17;;;;;;;5.03;2.55;;;;;;;;;;4282071;33;20049;-78
2023/07/09 06:30:44;;;;;;;4.97;2.65;;;;;;;;;;4249183;33;20054;-78
2023/07/09 06:33:11;;;;;;;3.30;2.40;;;;;;;;;;4266041;33;20054;-78
2023/07/09 06:35:39;;;;;;;4.57;2.65;;;;;;;;;;4266064;33;20026;-79
2023/07/09 06:38:06;;;;;;;7.72;2.95;;;;;;;;;;4265731;33;20068;-78
2023/07/09 06:40:32;;;;;;;6.20;2.53;;;;;;;;;;4256095;33;20072;-77
2023/07/09 06:42:58;;;;;;;2.83;2.33;;;;;;;;;;4250705;33;20157;-78
2023/07/09 06:45:24;;;;;;;6.70;2.33;;;;;;;;;;4265912;33;20076;-79
2023/07/09 06:47:51;;;;;;;10.32;2.70;;;;;;;;;;4268592;33;20435;-78
2023/07/09 06:50:16;;;;;;;4.97;2.17;;;;;;;;;;4265434;33;20054;-78
2023/07/09 06:52:43;;;;;;;3.62;2.45;;;;;;;;;;4269059;33;20057;-78
2023/07/09 06:55:09;;;;;;;2.17;2.00;;;;;;;;;;4279027;33;20071;-77
2023/07/09 06:57:35;;;;;;;5.75;2.03;;;;;;;;;;4279561;33;20476;-78
2023/07/09 07:00:02;;;;;;;2.28;2.08;;;;;;;;;;4281969;33;20361;-77
2023/07/09 07:02:28;;;;;;;2.65;2.45;;;;;;;;;;4281674;33;20093;-78
2023/07/09 07:04:55;;;;;;;6.87;2.10;;;;;;;;;;4279611;33;20057;-78
2023/07/09 07:07:28;;;;;;;2.15;1.95;;;;;;;;;;4280982;33;20050;-78
2023/07/09 07:09:54;;;;;;;5.97;2.40;;;;;;;;;;4282168;33;20064;-77
2023/07/09 07:12:25;;;;;;;7.32;2.17;;;;;;;;;;4281577;33;20061;-76
2023/07/09 07:14:51;;;;;;;11.10;2.30;;;;;;;;;;4252233;33;20051;-77
2023/07/09 07:17:17;;;;;;;3.30;2.00;;;;;;;;;;4254868;33;20044;-76
2023/07/09 07:19:44;;;;;;;2.30;2.10;;;;;;;;;;4254143;33;20039;-77
2023/07/09 07:22:10;;;;;;;5.28;2.25;;;;;;;;;;4254869;33;20059;-77
2023/07/09 07:24:36;;;;;;;3.90;2.20;;;;;;;;;;4252205;33;20042;-76
2023/07/09 07:27:02;;;;;;;4.20;2.60;;;;;;;;;;4255504;33;20713;-77
2023/07/09 07:29:29;;;;;;;3.83;2.20;;;;;;;;;;4247754;33;20231;-78
2023/07/09 07:31:55;;;;;;;3.50;2.35;;;;;;;;;;4248745;33;20433;-77
2023/07/09 07:34:21;;;;;;;5.93;2.40;;;;;;;;;;4239449;33;20094;-77
2023/07/09 07:36:50;;;;;;;3.10;2.22;;;;;;;;;;4237793;33;20054;-78
2023/07/09 07:39:16;;;;;;;6.72;2.28;;;;;;;;;;4239520;33;20456;-77
2023/07/09 07:41:42;;;;;;;3.12;2.40;;;;;;;;;;4243278;33;20073;-78
2023/07/09 07:44:08;;;;;;;5.68;3.08;;;;;;;;;;4238970;33;20074;-78
2023/07/09 07:46:34;;;;;;;3.20;2.35;;;;;;;;;;4259602;33;20068;-78
2023/07/09 07:49:00;;;;;;;3.03;2.47;;;;;;;;;;4279829;33;20079;-77
2023/07/09 07:51:27;;;;;;;5.60;2.33;;;;;;;;;;4283882;33;20071;-78
2023/07/09 07:53:53;;;;;;;1.95;1.85;;;;;;;;;;4286584;33;20036;-78
2023/07/09 07:56:20;;;;;;;3.28;2.20;;;;;;;;;;4285538;33;20045;-78
2023/07/09 07:58:46;;;;;;;2.22;2.10;;;;;;;;;;4285932;33;20045;-77
2023/07/09 08:01:12;;;;;;;2.87;2.00;;;;;;;;;;4296227;33;20128;-78
2023/07/09 08:03:38;;;;;;;2.70;2.10;;;;;;;;;;4298198;33;20221;-78
2023/07/09 08:06:04;;;;;;;5.60;2.17;;;;;;;;;;4298274;33;20045;-78
2023/07/09 08:08:30;;;;;;;1.80;1.70;;;;;;;;;;4297375;33;20052;-77
2023/07/09 08:11:07;;;;;;;1.95;1.80;;;;;;;;;;4298152;33;20056;-77
2023/07/09 08:13:34;;;;;;;2.50;2.30;;;;;;;;;;4290336;33;20079;-79
2023/07/09 08:16:00;;;;;;;4.90;2.42;;;;;;;;;;4285596;33;20041;-77
2023/07/09 08:18:26;;;;;;;5.32;1.70;;;;;;;;;;4283320;33;20064;-76
2023/07/09 08:20:52;;;;;;;2.12;1.92;;;;;;;;;;4293762;33;20071;-77
2023/07/09 08:23:19;;;;;;;5.32;1.95;;;;;;;;;;4295592;33;20097;-77
2023/07/09 08:25:52;;;;;;;3.37;1.73;;;;;;;;;;4284223;33;20083;-78
2023/07/09 08:28:18;;;;;;;5.95;1.95;;;;;;;;;;4276479;33;20541;-78
2023/07/09 08:30:45;;;;;;;7.85;1.87;;;;;;;;;;4275090;33;20041;-79
2023/07/09 08:33:10;;;;;;;2.30;2.10;;;;;;;;;;4278042;33;20045;-78
2023/07/09 08:35:37;;;;;;;1.98;1.90;;;;;;;;;;4293993;33;20394;-78
2023/07/09 08:38:03;;;;;;;5.00;2.40;;;;;;;;;;4291085;33;20053;-75
2023/07/09 08:40:30;;;;;;;3.03;2.28;;;;;;;;;;4283335;33;20061;-77
2023/07/09 08:43:02;;;;;;;5.62;2.10;;;;;;;;;;4287933;33;20053;-77
2023/07/09 08:45:50;;;;;;;3.20;2.00;;;;;;;;;;4286128;33;20096;-78
2023/07/09 08:48:29;;;;;;;2.45;2.25;;;;;;;;;;4288754;33;20037;-78
2023/07/09 08:50:59;;;;;;;3.45;2.28;;;;;;;;;;4287640;33;20071;-77
2023/07/09 08:53:31;;;;;;;5.47;2.25;;;;;;;;;;4230065;33;20522;-78
2023/07/09 08:55:57;;;;;;;2.40;2.30;;;;;;;;;;4228919;33;20125;-77
2023/07/09 08:58:25;;;;;;;4.15;2.30;;;;;;;;;;4230866;33;20036;-77
2023/07/09 09:00:56;;;;;;;2.35;1.90;;;;;;;;;;4238858;33;20430;-77
2023/07/09 09:03:40;;;;;;;3.42;2.15;;;;;;;;;;4234721;33;20050;-77
2023/07/09 09:06:11;;;;;;;2.33;1.85;;;;;;;;;;4242455;33;20071;-77
2023/07/09 09:08:43;;;;;;;3.33;1.90;;;;;;;;;;4242191;33;20055;-77
2023/07/09 09:11:20;;;;;;;3.75;2.05;;;;;;;;;;4242845;33;20064;-77
2023/07/09 09:13:46;;;;;;;2.12;1.45;;;;;;;;;;4239082;33;20074;-78
2023/07/09 09:16:17;;;;;;;1.95;1.85;;;;;;;;;;4241239;33;20057;-77
2023/07/09 09:18:44;;;;;;;2.67;2.47;;;;;;;;;;4238949;33;20112;-78
2023/07/09 09:21:30;;;;;;;2.50;2.30;;;;;;;;;;4224600;33;20051;-77
2023/07/09 09:23:59;;;;;;;2.00;1.90;;;;;;;;;;4232812;33;20069;-77
2023/07/09 09:26:32;;;;;;;3.60;2.20;;;;;;;;;;4256321;33;20039;-77
2023/07/09 09:28:59;;;;;;;4.75;1.60;;;;;;;;;;4256980;33;20077;-77
2023/07/09 09:31:29;;;;;;;2.30;2.00;;;;;;;;;;4227983;33;20059;-77
2023/07/09 09:33:55;;;;;;;2.85;2.10;;;;;;;;;;4219770;34;20053;-78
2023/07/09 09:36:26;;;;;;;2.33;2.12;;;;;;;;;;4234057;33;20573;-78
2023/07/09 09:38:52;;;;;;;3.75;2.28;;;;;;;;;;4232398;33;20085;-77
2023/07/09 09:41:20;;;;;;;3.75;1.87;;;;;;;;;;4240286;33;20118;-77
2023/07/09 09:43:47;;;;;;;2.80;2.05;;;;;;;;;;4243888;33;20082;-76
2023/07/09 09:46:17;;;;;;;2.72;1.83;;;;;;;;;;4245456;33;20065;-76
2023/07/09 09:48:44;;;;;;;5.28;1.92;;;;;;;;;;4233790;33;20042;-76
2023/07/09 09:51:12;;;;;;;6.53;2.53;;;;;;;;;;4236849;33;20387;-77
2023/07/09 09:53:39;;;;;;;2.05;1.95;;;;;;;;;;4222376;34;20098;-78
2023/07/09 09:56:10;;;;;;;3.15;2.20;;;;;;;;;;4224666;33;20106;-78
2023/07/09 09:58:39;;;;;;;9.80;4.28;;;;;;;;;;4203483;34;20069;-76
2023/07/09 10:01:06;;;;;;;7.55;2.30;;;;;;;;;;4169255;34;20082;-77
2023/07/09 10:03:34;;;;;;;6.28;2.05;;;;;;;;;;4185322;34;20051;-77
2023/07/09 10:06:02;;;;;;;7.00;2.87;;;;;;;;;;4186261;34;20157;-78
2023/07/09 10:08:40;;;;;;;13.57;3.10;;;;;;;;;;4198425;34;20061;-77
2023/07/09 10:11:27;;;;;;;3.58;2.53;;;;;;;;;;4198387;34;20546;-78
2023/07/09 10:13:54;;;;;;;4.72;2.95;;;;;;;;;;4198126;34;20036;-78
2023/07/09 10:16:29;;;;;;;2.15;1.83;;;;;;;;;;4197426;34;20047;-77
2023/07/09 10:19:03;;;;;;;2.45;2.25;;;;;;;;;;4202285;34;20234;-80
2023/07/09 10:21:46;;;;;;;3.53;1.92;;;;;;;;;;4200932;34;20067;-77
2023/07/09 10:24:12;;;;;;;3.80;1.60;;;;;;;;;;4198478;34;20488;-79
2023/07/09 10:26:46;;;;;;;5.57;2.03;;;;;;;;;;4213885;34;20253;-78
2023/07/09 10:29:36;;;;;;;3.67;2.53;;;;;;;;;;4216674;33;20038;-78
2023/07/09 10:32:23;;;;;;;3.65;1.98;;;;;;;;;;4256657;33;20063;-78
2023/07/09 10:34:59;;;;;;;2.20;1.90;;;;;;;;;;4283532;33;20045;-78
2023/07/09 10:37:43;;;;;;;3.92;2.00;;;;;;;;;;4265617;33;20107;-77
2023/07/09 10:40:11;;;;;;;1.73;1.62;;;;;;;;;;4266716;33;20144;-78
2023/07/09 10:42:48;;;;;;;4.15;1.73;;;;;;;;;;4236124;33;20244;-78
2023/07/09 10:45:21;;;;;;;1.95;1.83;;;;;;;;;;4236503;33;20030;-76
2023/07/09 10:47:49;;;;;;;3.03;2.70;;;;;;;;;;4239270;33;20058;-78
2023/07/09 10:50:20;;;;;;;2.42;1.80;;;;;;;;;;4239463;33;20073;-77
2023/07/09 10:52:50;;;;;;;2.90;2.65;;;;;;;;;;4235252;33;20106;-76
2023/07/09 10:55:26;;;;;;;17.42;5.05;;;;;;;;;;4233794;33;20064;-77
2023/07/09 10:58:10;;;;;;;2.62;2.40;;;;;;;;;;4233669;33;20038;-76
2023/07/09 11:03:42;;;;;;;3.33;2.00;;;;;;;;;;4186347;34;20168;-76
2023/07/09 11:06:16;;;;;;;4.32;2.25;;;;;;;;;;4185347;34;20088;-78
2023/07/09 11:08:42;;;;;;;4.18;1.95;;;;;;;;;;4201674;34;20088;-79
2023/07/09 11:11:13;;;;;;;10.43;2.25;;;;;;;;;;4215916;34;20489;-76
2023/07/09 11:14:00;;;;;;;4.30;2.17;;;;;;;;;;4222046;33;20078;-78
2023/07/09 11:16:29;;;;;;;3.70;2.20;;;;;;;;;;4230538;33;20061;-76
2023/07/09 11:18:58;;;;;;;3.60;2.12;;;;;;;;;;4220776;34;20062;-76
2023/07/09 11:21:24;;;;;;;2.33;1.85;;;;;;;;;;4223533;34;20042;-77
2023/07/09 11:23:59;;;;;;;3.15;2.00;;;;;;;;;;4223135;34;20042;-76
2023/07/09 11:26:30;;;;;;;1.60;1.50;;;;;;;;;;4223295;34;20607;-77
2023/07/09 11:29:13;;;;;;;1.95;1.85;;;;;;;;;;4220681;34;20471;-77
2023/07/09 11:31:41;;;;;;;2.22;2.03;;;;;;;;;;4233417;33;20050;-78
2023/07/09 11:34:09;;;;;;;2.50;2.30;;;;;;;;;;4194771;34;20035;-77
2023/07/09 11:36:45;;;;;;;7.20;2.20;;;;;;;;;;4198062;34;20103;-77
2023/07/09 11:39:38;;;;;;;2.22;1.95;;;;;;;;;;4203442;34;20055;-78
2023/07/09 11:42:22;;;;;;;6.18;2.05;;;;;;;;;;4186509;34;20051;-77
2023/07/09 11:44:50;;;;;;;1.95;1.85;;;;;;;;;;4190040;34;20052;-77
2023/07/09 11:47:22;;;;;;;3.05;2.17;;;;;;;;;;4187450;34;20039;-76
2023/07/09 11:49:52;;;;;;;3.47;2.50;;;;;;;;;;4168890;34;20371;-76
2023/07/09 11:52:22;;;;;;;2.42;1.85;;;;;;;;;;4166114;34;20040;-75
2023/07/09 11:54:51;;;;;;;3.47;2.10;;;;;;;;;;4169338;34;20059;-76
2023/07/09 11:57:17;;;;;;;6.75;1.95;;;;;;;;;;4169106;34;20059;-77
2023/07/09 11:59:44;;;;;;;4.57;1.90;;;;;;;;;;4188685;34;20069;-78
2023/07/09 12:02:16;;;;;;;1.37;1.27;;;;;;;;;;4192635;34;20166;-76
2023/07/09 12:04:42;;;;;;;1.80;1.70;;;;;;;;;;4209018;33;20030;-76
2023/07/09 12:07:12;;;;;;;2.17;2.03;;;;;;;;;;4244251;33;20031;-77
2023/07/09 12:09:40;;;;;;;2.03;1.92;;;;;;;;;;4241723;33;20038;-78
2023/07/09 12:12:17;;;;;;;2.10;1.90;;;;;;;;;;4242485;33;20046;-76
2023/07/09 12:14:43;;;;;;;1.90;1.80;;;;;;;;;;4255560;33;20488;-78
2023/07/09 12:17:09;;;;;;;2.25;1.75;;;;;;;;;;4259157;33;20119;-77
2023/07/09 12:19:36;;;;;;;7.03;2.00;;;;;;;;;;4259920;33;20377;-78
2023/07/09 12:22:05;;;;;;;5.87;2.10;;;;;;;;;;4235431;33;20065;-76
2023/07/09 12:24:41;;;;;;;2.30;1.95;;;;;;;;;;4228252;33;20611;-77
2023/07/09 12:27:24;;;;;;;4.12;2.35;;;;;;;;;;4233661;33;20043;-78
2023/07/09 12:29:53;;;;;;;2.20;1.83;;;;;;;;;;4226427;33;20473;-77
2023/07/09 12:32:20;;;;;;;2.00;1.90;;;;;;;;;;4218948;34;20115;-76
2023/07/09 12:34:50;;;;;;;1.98;1.87;;;;;;;;;;4217358;34;20055;-76
2023/07/09 12:37:18;;;;;;;1.67;1.47;;;;;;;;;;4214280;34;20073;-77
2023/07/09 12:39:44;;;;;;;3.10;1.87;;;;;;;;;;4217382;34;20100;-77
2023/07/09 12:42:16;;;;;;;4.25;2.05;;;;;;;;;;4216361;34;20102;-78
2023/07/09 12:44:43;;;;;;;3.05;1.95;;;;;;;;;;4215912;34;20047;-77
2023/07/09 12:47:13;;;;;;;2.17;2.08;;;;;;;;;;4216716;34;20060;-78
2023/07/09 12:49:40;;;;;;;3.03;1.80;;;;;;;;;;4215702;34;20111;-77
2023/07/09 12:52:09;;;;;;;5.45;2.10;;;;;;;;;;4219000;33;20050;-78
2023/07/09 12:54:35;;;;;;;3.15;1.70;;;;;;;;;;4215837;34;20187;-79
2023/07/09 12:57:09;;;;;;;3.58;1.73;;;;;;;;;;4216776;34;20494;-77
2023/07/09 12:59:38;;;;;;;1.58;1.50;;;;;;;;;;4214500;34;20038;-75
2023/07/09 13:02:19;;;;;;;2.03;1.70;;;;;;;;;;4232072;33;20062;-77
2023/07/09 13:04:46;;;;;;;2.45;1.42;;;;;;;;;;4217884;34;20063;-76
2023/07/09 13:07:21;;;;;;;1.87;1.75;;;;;;;;;;4213358;34;20047;-76
2023/07/09 13:09:51;;;;;;;1.90;1.80;;;;;;;;;;4196516;34;20189;-77
2023/07/09 13:12:17;;;;;;;2.05;1.60;;;;;;;;;;4210734;34;20042;-77
2023/07/09 13:14:52;;;;;;;1.70;1.67;;;;;;;;;;4208577;34;20497;-77
2023/07/09 13:17:18;;;;;;;2.42;2.00;;;;;;;;;;4205249;34;20072;-77
2023/07/09 13:19:44;;;;;;;1.70;1.60;;;;;;;;;;4208346;34;20196;-77
2023/07/09 13:22:18;;;;;;;4.43;1.80;;;;;;;;;;4208449;34;20078;-78
2023/07/09 13:24:45;;;;;;;4.47;1.30;;;;;;;;;;4209090;34;20507;-78
2023/07/09 13:27:12;;;;;;;1.73;1.62;;;;;;;;;;4221208;33;20076;-76
2023/07/09 13:29:39;;;;;;;1.62;1.52;;;;;;;;;;4221564;33;20130;-77
2023/07/09 13:32:12;;;;;;;1.65;1.55;;;;;;;;;;4221141;33;20157;-77
2023/07/09 13:34:39;;;;;;;3.78;1.58;;;;;;;;;;4222432;33;20058;-77
2023/07/09 13:37:08;;;;;;;3.17;1.40;;;;;;;;;;4236632;33;20054;-77
2023/07/09 13:39:34;;;;;;;1.50;1.42;;;;;;;;;;4234507;33;20039;-76
2023/07/09 13:42:01;;;;;;;1.98;1.48;;;;;;;;;;4250012;33;20102;-76
2023/07/09 13:44:28;;;;;;;1.92;1.60;;;;;;;;;;4238317;33;20084;-77
2023/07/09 13:46:55;;;;;;;5.50;1.30;;;;;;;;;;4239745;33;20464;-77
2023/07/09 13:49:22;;;;;;;3.30;1.87;;;;;;;;;;4250605;33;20026;-76
2023/07/09 13:51:50;;;;;;;1.37;1.33;;;;;;;;;;4247904;33;20107;-76
2023/07/09 13:54:18;;;;;;;1.10;1.10;;;;;;;;;;4250651;33;20073;-77
2023/07/09 13:56:44;;;;;;;1.17;1.17;;;;;;;;;;4246287;33;20046;-77
2023/07/09 13:59:15;;;;;;;3.08;1.85;;;;;;;;;;4247683;33;20076;-77
2023/07/09 14:01:41;;;;;;;1.80;1.70;;;;;;;;;;4250879;33;20065;-78
2023/07/09 14:04:09;;;;;;;1.35;1.25;;;;;;;;;;4258073;33;20087;-78
2023/07/09 14:06:35;;;;;;;1.25;1.25;;;;;;;;;;4253187;33;20046;-77
2023/07/09 14:09:01;;;;;;;4.80;1.33;;;;;;;;;;4225255;33;20165;-77
2023/07/09 14:11:28;;;;;;;1.92;1.30;;;;;;;;;;4227403;33;20059;-77
2023/07/09 14:13:55;;;;;;;1.85;1.60;;;;;;;;;;4228123;33;20219;-77
2023/07/09 14:16:21;;;;;;;1.65;1.30;;;;;;;;;;4237797;33;20046;-77
2023/07/09 14:18:47;;;;;;;1.75;1.10;;;;;;;;;;4240747;33;20389;-77
2023/07/09 14:21:19;;;;;;;1.85;1.30;;;;;;;;;;4239025;33;20064;-78
2023/07/09 14:23:45;;;;;;;1.35;1.35;;;;;;;;;;4239727;33;20042;-78
2023/07/09 14:26:12;;;;;;;1.20;1.20;;;;;;;;;;4242457;33;20062;-78
2023/07/09 14:28:38;;;;;;;0.95;0.95;;;;;;;;;;4238909;33;20031;-76
2023/07/09 14:31:13;;;;;;;0.95;0.95;;;;;;;;;;4238981;33;20068;-77
2023/07/09 14:33:39;;;;;;;1.00;1.00;;;;;;;;;;4238534;33;20081;-77
2023/07/09 14:36:06;;;;;;;2.72;0.95;;;;;;;;;;4224835;34;20064;-77
2023/07/09 14:38:32;;;;;;;1.27;1.02;;;;;;;;;;4221118;34;20626;-77
2023/07/09 14:41:16;;;;;;;1.20;1.10;;;;;;;;;;4236767;33;20050;-76
2023/07/09 14:43:41;;;;;;;1.37;0.88;;;;;;;;;;4239443;33;20072;-77
2023/07/09 14:46:08;;;;;;;1.40;1.40;;;;;;;;;;4238955;33;20444;-76
2023/07/09 14:48:34;;;;;;;1.20;1.20;;;;;;;;;;4246094;33;20104;-76
2023/07/09 14:51:00;;;;;;;1.48;1.37;;;;;;;;;;4242036;33;20050;-76
2023/07/09 14:53:27;;;;;;;0.98;0.98;;;;;;;;;;4246025;33;20075;-76
2023/07/09 14:55:54;;;;;;;0.90;0.90;;;;;;;;;;4246707;33;20068;-76
2023/07/09 14:58:21;;;;;;;3.67;1.08;;;;;;;;;;4252761;33;20078;-74
2023/07/09 15:00:48;;;;;;;2.87;1.20;;;;;;;;;;4241866;33;20082;-73
2023/07/09 15:03:21;;;;;;;12.13;1.70;;;;;;;;;;4248181;33;20566;-76
2023/07/09 15:05:47;;;;;;;4.60;1.48;;;;;;;;;;4239245;33;20046;-75
2023/07/09 15:08:14;;;;;;;4.75;1.25;;;;;;;;;;4241003;33;20035;-75
2023/07/09 15:10:40;;;;;;;1.52;1.42;;;;;;;;;;4237860;33;20050;-74
2023/07/09 15:13:16;;;;;;;1.40;1.30;;;;;;;;;;4236339;33;20068;-74
2023/07/09 15:15:42;;;;;;;3.25;1.35;;;;;;;;;;4232204;33;20058;-77
2023/07/09 15:18:10;;;;;;;1.52;1.30;;;;;;;;;;4237858;33;20064;-76
2023/07/09 15:20:37;;;;;;;1.15;1.15;;;;;;;;;;4215938;34;20065;-77
2023/07/09 15:23:03;;;;;;;3.70;1.20;;;;;;;;;;4220432;34;20507;-77
2023/07/09 15:25:30;;;;;;;1.10;1.10;;;;;;;;;;4223283;34;20054;-76
2023/07/09 15:27:57;;;;;;;1.30;1.15;;;;;;;;;;4215036;34;20178;-76
2023/07/09 15:30:24;;;;;;;1.45;1.30;;;;;;;;;;4218130;33;20050;-75
2023/07/09 15:32:51;;;;;;;2.15;1.50;;;;;;;;;;4222321;33;20039;-76
2023/07/09 15:35:18;;;;;;;4.00;1.15;;;;;;;;;;4223179;33;20046;-77
2023/07/09 15:37:44;;;;;;;1.33;1.23;;;;;;;;;;4248275;33;20046;-74
2023/07/09 15:40:14;;;;;;;1.52;1.37;;;;;;;;;;4250682;33;20065;-76
2023/07/09 15:42:40;;;;;;;1.33;1.23;;;;;;;;;;4243342;33;20388;-77
2023/07/09 15:45:07;;;;;;;2.90;1.05;;;;;;;;;;4246320;33;20072;-75
2023/07/09 15:47:34;;;;;;;1.05;1.05;;;;;;;;;;4250748;33;20579;-76
2023/07/09 15:50:00;;;;;;;2.30;2.15;;;;;;;;;;4251796;33;20066;-75
2023/07/09 15:52:26;;;;;;;1.37;1.37;;;;;;;;;;4262178;33;20082;-75
2023/07/09 15:54:52;;;;;;;1.65;1.55;;;;;;;;;;4266158;33;20425;-75
2023/07/09 15:57:18;;;;;;;5.15;1.33;;;;;;;;;;4263024;33;20048;-75
2023/07/09 15:59:44;;;;;;;5.80;1.60;;;;;;;;;;4265581;33;20224;-75
2023/07/09 16:02:12;;;;;;;1.30;1.30;;;;;;;;;;4261727;33;20362;-75
2023/07/09 16:04:41;;;;;;;3.30;1.65;;;;;;;;;;4243143;33;20408;-76
2023/07/09 16:07:07;;;;;;;1.33;1.23;;;;;;;;;;4237377;33;20060;-75
2023/07/09 16:09:33;;;;;;;1.75;1.55;;;;;;;;;;4196272;34;20472;-75
2023/07/09 16:12:00;;;;;;;1.95;1.45;;;;;;;;;;4206762;34;20074;-76
2023/07/09 16:14:31;;;;;;;4.97;1.40;;;;;;;;;;4220408;34;20055;-74
2023/07/09 16:16:58;;;;;;;8.30;1.90;;;;;;;;;;4212373;34;21482;-76
2023/07/09 16:19:25;;;;;;;1.52;1.52;;;;;;;;;;4210079;34;20073;-77
2023/07/09 16:21:53;;;;;;;4.82;1.67;;;;;;;;;;4208835;34;20043;-75
2023/07/09 16:24:25;;;;;;;2.53;1.55;;;;;;;;;;4207876;34;20090;-77
2023/07/09 16:26:52;;;;;;;1.85;1.75;;;;;;;;;;4193357;34;20118;-77
2023/07/09 16:29:26;;;;;;;1.60;1.50;;;;;;;;;;4206440;34;20111;-77
2023/07/09 16:31:54;;;;;;;1.58;1.30;;;;;;;;;;4208843;34;20083;-76
2023/07/09 16:34:21;;;;;;;2.15;1.35;;;;;;;;;;4204816;34;20055;-79
2023/07/09 16:36:47;;;;;;;1.67;1.30;;;;;;;;;;4201676;34;20103;-80
2023/07/09 16:39:23;;;;;;;2.33;1.02;;;;;;;;;;4206496;34;20081;-75
2023/07/09 16:41:49;;;;;;;1.48;1.48;;;;;;;;;;4217332;34;20400;-78
2023/07/09 16:44:16;;;;;;;1.12;1.12;;;;;;;;;;4207491;34;20051;-77
2023/07/09 16:46:42;;;;;;;6.20;1.35;;;;;;;;;;4215807;33;20130;-78
2023/07/09 16:49:22;;;;;;;1.55;1.45;;;;;;;;;;4231826;33;20455;-77
2023/07/09 16:51:49;;;;;;;2.22;1.40;;;;;;;;;;4221436;34;20055;-78
2023/07/09 16:54:15;;;;;;;2.05;1.10;;;;;;;;;;4222853;34;20359;-77